createdAt,value
2023-01-18T00:01:02.853Z,97359.75
2023-01-18T00:02:04.594Z,97366.19
2023-01-18T00:03:08.877Z,97365.16
2023-01-18T00:04:10.573Z,97364.13
2023-01-18T00:05:14.875Z,97360.97
2023-01-18T00:06:17.823Z,97367.41
2023-01-18T00:07:20.616Z,97360.97
2023-01-18T00:08:22.291Z,97359.94
2023-01-18T00:09:25.034Z,97360.78
2023-01-18T00:10:26.888Z,97354.53
2023-01-18T00:11:29.588Z,97362.41
2023-01-18T00:12:33.305Z,97357.00
2023-01-18T00:13:36.527Z,97363.84
2023-01-18T00:14:38.247Z,97362.00
2023-01-18T00:15:40.955Z,97362.19
2023-01-18T00:16:42.652Z,97353.06
2023-01-18T00:17:52.543Z,97356.38
2023-01-18T00:18:55.597Z,97356.38
2023-01-18T00:19:58.397Z,97347.44
2023-01-18T00:21:01.963Z,97356.16
2023-01-18T00:22:04.754Z,97353.25
2023-01-18T00:23:06.491Z,97355.75
2023-01-18T00:24:15.038Z,97347.63
2023-01-18T00:25:17.275Z,97351.38
2023-01-18T00:26:20.339Z,97353.03
2023-01-18T00:27:22.054Z,97354.06
2023-01-18T00:28:24.794Z,97356.78
2023-01-18T00:29:26.448Z,97349.91
2023-01-18T00:30:30.390Z,97352.41
2023-01-18T00:31:32.178Z,97354.91
2023-01-18T00:32:35.319Z,97350.34
2023-01-18T00:33:37.349Z,97354.06
2023-01-18T00:34:40.316Z,97352.41
2023-01-18T00:35:41.995Z,97352.41
2023-01-18T00:36:46.159Z,97343.69
2023-01-18T00:37:48.096Z,97349.31
2023-01-18T00:38:52.293Z,97356.78
2023-01-18T00:39:54.036Z,97356.41
2023-01-18T00:40:56.912Z,97346.84
2023-01-18T00:42:17.163Z,97349.97
2023-01-18T00:43:37.542Z,97348.13
2023-01-18T00:44:39.312Z,97351.06
2023-01-18T00:45:42.086Z,97352.09
2023-01-18T00:46:43.846Z,97351.25
2023-01-18T00:47:46.620Z,97345.03
2023-01-18T00:48:50.131Z,97353.13
2023-01-18T00:49:52.814Z,97353.13
2023-01-18T00:50:54.671Z,97357.31
2023-01-18T00:51:58.949Z,97348.59
2023-01-18T00:53:00.816Z,97349.41
2023-01-18T00:54:03.553Z,97351.50
2023-01-18T00:55:06.894Z,97350.44
2023-01-18T00:56:10.984Z,97351.50
2023-01-18T00:57:13.466Z,97347.97
2023-01-18T00:58:16.152Z,97354.22
2023-01-18T00:59:17.790Z,97345.28
2023-01-18T01:00:20.506Z,97360.66
2023-01-18T01:01:23.217Z,97356.50
2023-01-18T01:02:25.023Z,97353.19
2023-01-18T01:03:27.799Z,97361.50
2023-01-18T01:04:47.888Z,97362.94
2023-01-18T01:06:08.374Z,97363.59
2023-01-18T01:07:11.667Z,97366.88
2023-01-18T01:08:17.776Z,97365.84
2023-01-18T01:09:21.436Z,97363.78
2023-01-18T01:10:24.085Z,97357.56
2023-01-18T01:11:25.835Z,97363.16
2023-01-18T01:12:46.077Z,97366.69
2023-01-18T01:14:06.418Z,97362.31
2023-01-18T01:15:28.323Z,97367.72
2023-01-18T01:16:48.844Z,97371.06
2023-01-18T01:18:08.941Z,97372.91
2023-01-18T01:19:29.406Z,97374.59
2023-01-18T01:20:49.764Z,97373.50
2023-01-18T01:22:10.013Z,97377.03
2023-01-18T01:23:33.161Z,97375.19
2023-01-18T01:24:54.119Z,97382.25
2023-01-18T01:26:08.949Z,97377.03
2023-01-18T01:27:11.196Z,97378.91
2023-01-18T01:28:13.845Z,97387.66
2023-01-18T01:29:16.022Z,97385.78
2023-01-18T01:30:19.021Z,97374.97
2023-01-18T01:31:21.000Z,97388.25
2023-01-18T01:32:23.763Z,97375.56
2023-01-18T01:33:25.502Z,97385.13
2023-01-18T01:34:29.677Z,97378.06
2023-01-18T01:35:31.386Z,97382.03
2023-01-18T01:36:34.402Z,97384.50
2023-01-18T01:37:36.123Z,97388.88
2023-01-18T01:38:41.358Z,97385.13
2023-01-18T01:39:43.053Z,97388.03
2023-01-18T01:40:45.748Z,97385.34
2023-01-18T01:41:47.574Z,97392.41
2023-01-18T01:42:50.292Z,97385.34
2023-01-18T01:43:53.559Z,97393.25
2023-01-18T01:44:56.369Z,97395.94
2023-01-18T01:45:58.303Z,97399.25
2023-01-18T01:47:03.995Z,97399.88
2023-01-18T01:48:05.960Z,97400.69
2023-01-18T01:49:13.167Z,97399.66
2023-01-18T01:50:18.900Z,97401.31
2023-01-18T01:51:21.655Z,97412.09
2023-01-18T01:52:26.202Z,97400.25
2023-01-18T01:53:28.977Z,97398.41
2023-01-18T01:54:35.152Z,97409.00
2023-01-18T01:55:39.021Z,97409.00
2023-01-18T01:56:41.481Z,97411.69
2023-01-18T01:57:45.800Z,97405.66
2023-01-18T01:58:48.737Z,97409.19
2023-01-18T01:59:54.456Z,97406.69
2023-01-18T02:00:57.430Z,97411.50
2023-01-18T02:01:59.534Z,97408.81
2023-01-18T02:03:05.249Z,97409.84
2023-01-18T02:04:07.079Z,97413.81
2023-01-18T02:05:11.288Z,97415.88
2023-01-18T02:06:19.250Z,97410.47
2023-01-18T02:07:22.241Z,97406.13
2023-01-18T02:08:25.143Z,97412.78
2023-01-18T02:09:28.165Z,97413.81
2023-01-18T02:10:33.521Z,97414.66
2023-01-18T02:11:36.461Z,97416.50
2023-01-18T02:12:39.715Z,97421.72
2023-01-18T02:13:42.524Z,97421.72
2023-01-18T02:14:44.270Z,97427.50
2023-01-18T02:15:52.388Z,97422.94
2023-01-18T02:17:07.779Z,97425.44
2023-01-18T02:18:23.707Z,97427.13
2023-01-18T02:19:44.952Z,97437.28
2023-01-18T02:21:13.508Z,97437.06
2023-01-18T02:22:26.232Z,97440.41
2023-01-18T02:23:36.727Z,97445.38
2023-01-18T02:25:11.721Z,97440.81
2023-01-18T02:26:46.999Z,97443.31
2023-01-18T02:27:51.599Z,97441.66
2023-01-18T02:29:00.448Z,97442.69
2023-01-18T02:30:12.852Z,97445.38
2023-01-18T02:31:18.752Z,97446.63
2023-01-18T02:32:25.697Z,97449.78
2023-01-18T02:33:32.388Z,97447.91
2023-01-18T02:34:40.399Z,97450.81
2023-01-18T02:35:48.460Z,97447.28
2023-01-18T02:36:56.898Z,97447.47
2023-01-18T02:38:05.830Z,97448.50
2023-01-18T02:39:13.536Z,97454.75
2023-01-18T02:40:21.586Z,97455.38
2023-01-18T02:41:50.781Z,97459.72
2023-01-18T02:43:10.976Z,97452.47
2023-01-18T02:44:34.249Z,97459.94
2023-01-18T02:45:57.647Z,97461.19
2023-01-18T02:47:01.237Z,97458.50
2023-01-18T02:48:03.377Z,97457.66
2023-01-18T02:49:08.846Z,97470.31
2023-01-18T02:50:11.036Z,97470.31
2023-01-18T02:51:13.784Z,97465.56
2023-01-18T02:52:40.329Z,97471.16
2023-01-18T02:53:45.328Z,97463.25
2023-01-18T02:54:47.211Z,97464.91
2023-01-18T02:55:53.007Z,97475.53
2023-01-18T02:56:55.390Z,97477.19
2023-01-18T02:58:02.143Z,97477.19
2023-01-18T02:59:08.735Z,97476.13
2023-01-18T03:00:17.475Z,97474.25
2023-01-18T03:01:26.214Z,97475.31
2023-01-18T03:02:29.499Z,97479.06
2023-01-18T03:03:31.798Z,97484.84
2023-01-18T03:04:38.002Z,97484.44
2023-01-18T03:05:40.921Z,97481.53
2023-01-18T03:06:46.689Z,97481.97
2023-01-18T03:07:52.494Z,97487.13
2023-01-18T03:08:55.964Z,97478.00
2023-01-18T03:09:59.110Z,97491.09
2023-01-18T03:11:03.510Z,97486.94
2023-01-18T03:12:12.439Z,97487.75
2023-01-18T03:13:18.031Z,97479.66
2023-01-18T03:14:23.891Z,97494.41
2023-01-18T03:15:31.500Z,97481.09
2023-01-18T03:16:41.123Z,97493.56
2023-01-18T03:17:45.462Z,97481.53
2023-01-18T03:19:00.882Z,97493.97
2023-01-18T03:20:09.762Z,97499.38
2023-01-18T03:21:11.531Z,97495.44
2023-01-18T03:22:14.437Z,97492.31
2023-01-18T03:23:42.765Z,97495.00
2023-01-18T03:24:44.857Z,97492.31
2023-01-18T03:25:49.748Z,97498.53
2023-01-18T03:26:53.914Z,97504.34
2023-01-18T03:28:15.654Z,97506.66
2023-01-18T03:29:37.404Z,97504.78
2023-01-18T03:30:59.457Z,97505.63
2023-01-18T03:32:22.570Z,97508.72
2023-01-18T03:33:43.381Z,97508.50
2023-01-18T03:34:51.213Z,97508.28
2023-01-18T03:35:54.277Z,97512.03
2023-01-18T03:36:59.801Z,97523.44
2023-01-18T03:38:01.571Z,97514.31
2023-01-18T03:39:07.135Z,97514.09
2023-01-18T03:40:12.808Z,97521.78
2023-01-18T03:41:16.429Z,97515.75
2023-01-18T03:42:21.564Z,97521.78
2023-01-18T03:43:24.140Z,97525.94
2023-01-18T03:44:31.505Z,97529.06
2023-01-18T03:45:34.204Z,97527.16
2023-01-18T03:46:39.167Z,97528.81
2023-01-18T03:47:40.855Z,97524.06
2023-01-18T03:48:43.588Z,97529.88
2023-01-18T03:49:45.536Z,97529.44
2023-01-18T03:50:51.605Z,97525.69
2023-01-18T03:52:08.802Z,97529.63
2023-01-18T03:53:15.249Z,97534.00
2023-01-18T03:54:20.676Z,97529.88
2023-01-18T03:55:26.537Z,97537.53
2023-01-18T03:56:32.476Z,97536.50
2023-01-18T03:57:38.369Z,97537.53
2023-01-18T03:58:42.203Z,97524.47
2023-01-18T03:59:45.005Z,97535.03
2023-01-18T04:00:46.872Z,97535.88
2023-01-18T04:01:51.231Z,97538.56
2023-01-18T04:02:53.044Z,97535.25
2023-01-18T04:03:55.738Z,97541.50
2023-01-18T04:04:58.401Z,97537.75
2023-01-18T04:06:02.135Z,97547.09
2023-01-18T04:07:04.144Z,97543.38
2023-01-18T04:08:07.477Z,97549.81
2023-01-18T04:09:09.457Z,97545.44
2023-01-18T04:10:12.623Z,97553.13
2023-01-18T04:11:14.340Z,97551.47
2023-01-18T04:12:17.080Z,97560.41
2023-01-18T04:13:18.778Z,97557.72
2023-01-18T04:14:21.491Z,97563.94
2023-01-18T04:15:23.566Z,97565.63
2023-01-18T04:16:26.329Z,97567.47
2023-01-18T04:17:29.653Z,97568.50
2023-01-18T04:18:32.388Z,97574.34
2023-01-18T04:19:34.067Z,97581.41
2023-01-18T04:20:36.702Z,97581.19
2023-01-18T04:21:38.569Z,97578.47
2023-01-18T04:22:41.253Z,97579.75
2023-01-18T04:23:43.005Z,97580.59
2023-01-18T04:24:45.865Z,97579.13
2023-01-18T04:25:49.965Z,97576.22
2023-01-18T04:26:52.661Z,97576.81
2023-01-18T04:27:54.391Z,97569.56
2023-01-18T04:28:57.185Z,97582.22
2023-01-18T04:29:58.886Z,97579.31
2023-01-18T04:31:01.802Z,97588.25
2023-01-18T04:32:05.566Z,97582.84
2023-01-18T04:33:08.639Z,97584.53
2023-01-18T04:34:11.291Z,97582.03
2023-01-18T04:35:13.533Z,97582.03
2023-01-18T04:36:16.225Z,97590.13
2023-01-18T04:37:19.028Z,97581.00
2023-01-18T04:38:21.102Z,97582.66
2023-01-18T04:39:23.945Z,97588.88
2023-01-18T04:40:25.778Z,97588.66
2023-01-18T04:41:28.538Z,97596.38
2023-01-18T04:42:30.590Z,97592.59
2023-01-18T04:43:33.394Z,97595.09
2023-01-18T04:44:35.101Z,97598.63
2023-01-18T04:45:37.819Z,97598.63
2023-01-18T04:46:39.593Z,97596.53
2023-01-18T04:47:42.826Z,97601.94
2023-01-18T04:48:50.545Z,97596.34
2023-01-18T04:49:52.398Z,97603.63
2023-01-18T04:50:55.159Z,97609.25
2023-01-18T04:51:56.863Z,97605.28
2023-01-18T04:53:00.087Z,97602.38
2023-01-18T04:54:03.108Z,97604.25
2023-01-18T04:55:05.657Z,97610.06
2023-01-18T04:56:08.878Z,97617.13
2023-01-18T04:57:10.573Z,97610.88
2023-01-18T04:58:13.245Z,97615.25
2023-01-18T04:59:15.750Z,97615.03
2023-01-18T05:00:19.221Z,97615.25
2023-01-18T05:01:21.900Z,97612.56
2023-01-18T05:02:24.735Z,97611.72
2023-01-18T05:03:26.509Z,97619.84
2023-01-18T05:04:30.704Z,97624.41
2023-01-18T05:05:32.496Z,97621.91
2023-01-18T05:06:35.145Z,97623.38
2023-01-18T05:07:36.836Z,97626.91
2023-01-18T05:08:40.913Z,97628.38
2023-01-18T05:09:42.643Z,97625.84
2023-01-18T05:10:45.381Z,97615.28
2023-01-18T05:11:47.279Z,97629.59
2023-01-18T05:12:50.038Z,97626.28
2023-01-18T05:13:51.757Z,97629.81
2023-01-18T05:14:54.438Z,97635.22
2023-01-18T05:15:56.664Z,97634.41
2023-01-18T05:16:59.384Z,97636.25
2023-01-18T05:18:01.700Z,97636.06
2023-01-18T05:19:04.388Z,97638.97
2023-01-18T05:20:10.260Z,97639.38
2023-01-18T05:21:13.537Z,97639.38
2023-01-18T05:22:15.677Z,97639.59
2023-01-18T05:23:18.474Z,97647.47
2023-01-18T05:24:20.155Z,97648.31
2023-01-18T05:25:22.889Z,97651.22
2023-01-18T05:26:24.823Z,97653.09
2023-01-18T05:27:27.597Z,97651.41
2023-01-18T05:28:29.254Z,97651.63
2023-01-18T05:29:32.055Z,97651.84
2023-01-18T05:30:35.148Z,97651.84
2023-01-18T05:31:36.923Z,97651.84
2023-01-18T05:32:39.927Z,97650.16
2023-01-18T05:33:42.027Z,97658.06
2023-01-18T05:34:44.763Z,97658.91
2023-01-18T05:35:51.385Z,97661.19
2023-01-18T05:36:54.070Z,97666.38
2023-01-18T05:37:55.810Z,97670.75
2023-01-18T05:38:58.508Z,97666.38
2023-01-18T05:40:00.226Z,97668.25
2023-01-18T05:41:03.198Z,97670.94
2023-01-18T05:42:05.684Z,97671.78
2023-01-18T05:43:08.364Z,97669.06
2023-01-18T05:44:11.233Z,97674.91
2023-01-18T05:45:13.907Z,97675.72
2023-01-18T05:46:15.940Z,97679.47
2023-01-18T05:47:18.637Z,97682.38
2023-01-18T05:48:20.879Z,97686.31
2023-01-18T05:49:23.552Z,97687.16
2023-01-18T05:50:26.201Z,97685.28
2023-01-18T05:51:30.917Z,97688.81
2023-01-18T05:52:32.574Z,97684.22
2023-01-18T05:53:35.323Z,97688.00
2023-01-18T05:54:37.052Z,97685.06
2023-01-18T05:55:39.718Z,97689.25
2023-01-18T05:56:42.068Z,97691.94
2023-01-18T05:57:46.024Z,97688.41
2023-01-18T05:58:49.257Z,97690.91
2023-01-18T05:59:52.073Z,97691.75
2023-01-18T06:00:54.001Z,97691.09
2023-01-18T06:01:56.925Z,97691.31
2023-01-18T06:02:58.968Z,97692.97
2023-01-18T06:04:02.020Z,97695.88
2023-01-18T06:05:04.058Z,97700.66
2023-01-18T06:06:07.246Z,97700.25
2023-01-18T06:07:10.336Z,97703.78
2023-01-18T06:08:13.032Z,97701.91
2023-01-18T06:09:14.681Z,97694.22
2023-01-18T06:10:17.889Z,97706.66
2023-01-18T06:11:19.632Z,97712.91
2023-01-18T06:12:22.359Z,97712.06
2023-01-18T06:13:24.563Z,97715.84
2023-01-18T06:14:27.382Z,97709.59
2023-01-18T06:15:29.200Z,97718.31
2023-01-18T06:16:32.018Z,97719.78
2023-01-18T06:17:34.232Z,97721.47
2023-01-18T06:18:38.389Z,97726.22
2023-01-18T06:19:40.142Z,97723.50
2023-01-18T06:20:42.907Z,97731.63
2023-01-18T06:21:45.560Z,97731.19
2023-01-18T06:22:48.704Z,97736.59
2023-01-18T06:23:51.545Z,97733.69
2023-01-18T06:24:54.281Z,97731.81
2023-01-18T06:25:55.958Z,97737.03
2023-01-18T06:26:59.324Z,97740.38
2023-01-18T06:28:00.965Z,97735.75
2023-01-18T06:29:04.359Z,97736.41
2023-01-18T06:30:08.206Z,97737.84
2023-01-18T06:31:11.484Z,97737.84
2023-01-18T06:32:14.260Z,97742.03
2023-01-18T06:33:15.978Z,97744.53
2023-01-18T06:34:18.640Z,97750.78
2023-01-18T06:35:20.918Z,97742.66
2023-01-18T06:36:23.654Z,97750.53
2023-01-18T06:37:25.793Z,97747.00
2023-01-18T06:38:31.326Z,97750.53
2023-01-18T06:39:33.013Z,97758.66
2023-01-18T06:40:35.687Z,97757.63
2023-01-18T06:41:37.587Z,97756.59
2023-01-18T06:42:40.358Z,97758.44
2023-01-18T06:43:44.253Z,97756.59
2023-01-18T06:44:45.998Z,97753.25
2023-01-18T06:45:53.410Z,97760.50
2023-01-18T06:46:55.168Z,97770.47
2023-01-18T06:47:57.886Z,97764.88
2023-01-18T06:48:59.645Z,97771.13
2023-01-18T06:50:02.581Z,97773.81
2023-01-18T06:51:05.434Z,97773.19
2023-01-18T06:52:07.093Z,97775.88
2023-01-18T06:53:09.737Z,97775.88
2023-01-18T06:54:14.787Z,97774.84
2023-01-18T06:55:19.059Z,97778.59
2023-01-18T06:56:21.810Z,97784.81
2023-01-18T06:57:23.946Z,97785.88
2023-01-18T06:58:27.588Z,97787.75
2023-01-18T06:59:29.345Z,97786.91
2023-01-18T07:00:32.052Z,97792.50
2023-01-18T07:01:34.026Z,97793.34
2023-01-18T07:02:37.543Z,97805.00
2023-01-18T07:03:39.232Z,97796.06
2023-01-18T07:04:44.178Z,97797.72
2023-01-18T07:05:46.715Z,97803.31
2023-01-18T07:06:49.587Z,97806.03
2023-01-18T07:07:51.278Z,97801.66
2023-01-18T07:08:53.950Z,97802.47
2023-01-18T07:09:57.227Z,97810.41
2023-01-18T07:11:00.478Z,97805.00
2023-01-18T07:12:02.236Z,97812.91
2023-01-18T07:13:05.692Z,97811.00
2023-01-18T07:14:07.455Z,97809.97
2023-01-18T07:15:21.108Z,97816.41
2023-01-18T07:16:24.838Z,97818.06
2023-01-18T07:17:26.514Z,97824.31
2023-01-18T07:18:30.451Z,97828.69
2023-01-18T07:19:33.224Z,97832.22
2023-01-18T07:20:35.071Z,97831.19
2023-01-18T07:21:37.928Z,97826.19
2023-01-18T07:22:39.734Z,97830.56
2023-01-18T07:23:43.222Z,97836.78
2023-01-18T07:24:45.658Z,97834.94
2023-01-18T07:25:49.798Z,97832.22
2023-01-18T07:26:51.501Z,97842.00
2023-01-18T07:27:55.825Z,97840.94
2023-01-18T07:28:57.506Z,97839.09
2023-01-18T07:30:00.549Z,97837.41
2023-01-18T07:31:03.278Z,97840.13
2023-01-18T07:32:06.296Z,97850.91
2023-01-18T07:33:08.086Z,97846.56
2023-01-18T07:34:11.373Z,97850.13
2023-01-18T07:35:13.077Z,97851.75
2023-01-18T07:36:15.822Z,97854.25
2023-01-18T07:37:17.656Z,97855.09
2023-01-18T07:38:20.911Z,97855.09
2023-01-18T07:39:23.591Z,97861.72
2023-01-18T07:40:25.288Z,97856.31
2023-01-18T07:41:31.004Z,97857.16
2023-01-18T07:42:32.870Z,97851.56
2023-01-18T07:43:37.524Z,97859.84
2023-01-18T07:44:42.357Z,97866.31
2023-01-18T07:45:46.146Z,97867.97
2023-01-18T07:46:49.018Z,97874.19
2023-01-18T07:47:52.103Z,97867.59
2023-01-18T07:48:54.955Z,97879.22
2023-01-18T07:49:57.701Z,97876.09
2023-01-18T07:51:00.829Z,97876.75
2023-01-18T07:52:03.732Z,97881.72
2023-01-18T07:53:08.509Z,97880.47
2023-01-18T07:54:11.233Z,97877.78
2023-01-18T07:55:13.017Z,97887.97
2023-01-18T07:56:17.642Z,97884.88
2023-01-18T07:57:21.738Z,97891.13
2023-01-18T07:58:24.098Z,97890.91
2023-01-18T07:59:27.899Z,97888.00
2023-01-18T08:00:29.610Z,97890.53
2023-01-18T08:01:32.723Z,97892.19
2023-01-18T08:02:35.215Z,97897.38
2023-01-18T08:03:38.642Z,97901.09
2023-01-18T08:04:41.923Z,97903.00
2023-01-18T08:05:44.210Z,97905.91
2023-01-18T08:06:47.412Z,97903.19
2023-01-18T08:07:49.896Z,97904.22
2023-01-18T08:08:52.875Z,97898.81
2023-01-18T08:09:54.608Z,97910.06
2023-01-18T08:10:57.628Z,97908.78
2023-01-18T08:12:00.408Z,97905.03
2023-01-18T08:13:03.845Z,97907.72
2023-01-18T08:14:06.545Z,97918.53
2023-01-18T08:15:09.177Z,97920.22
2023-01-18T08:16:12.944Z,97923.56
2023-01-18T08:17:14.716Z,97927.09
2023-01-18T08:18:17.479Z,97928.13
2023-01-18T08:19:20.175Z,97928.31
2023-01-18T08:20:22.199Z,97926.03
2023-01-18T08:21:24.925Z,97931.22
2023-01-18T08:22:26.752Z,97932.28
2023-01-18T08:23:29.458Z,97930.75
2023-01-18T08:24:32.285Z,97931.19
2023-01-18T08:25:35.000Z,97931.03
2023-01-18T08:26:36.854Z,97934.53
2023-01-18T08:27:39.918Z,97930.59
2023-01-18T08:28:44.775Z,97936.63
2023-01-18T08:29:47.037Z,97942.03
2023-01-18T08:30:49.972Z,97941.22
2023-01-18T08:31:53.445Z,97939.94
2023-01-18T08:32:57.791Z,97941.13
2023-01-18T08:34:02.514Z,97949.25
2023-01-18T08:35:06.312Z,97946.16
2023-01-18T08:36:13.804Z,97949.06
2023-01-18T08:37:17.309Z,97959.91
2023-01-18T08:38:19.321Z,97951.59
2023-01-18T08:39:22.319Z,97956.09
2023-01-18T08:40:24.315Z,97959.06
2023-01-18T08:41:30.069Z,97953.63
2023-01-18T08:42:31.904Z,97953.22
2023-01-18T08:43:35.201Z,97956.38
2023-01-18T08:44:39.348Z,97964.25
2023-01-18T08:45:41.123Z,97963.25
2023-01-18T08:46:43.936Z,97962.84
2023-01-18T08:47:46.810Z,97966.16
2023-01-18T08:48:50.740Z,97968.06
2023-01-18T08:49:53.532Z,97972.03
2023-01-18T08:51:00.514Z,97971.00
2023-01-18T08:52:02.202Z,97969.38
2023-01-18T08:53:04.992Z,97972.91
2023-01-18T08:54:07.256Z,97974.53
2023-01-18T08:55:10.855Z,97982.31
2023-01-18T08:56:13.834Z,97973.28
2023-01-18T08:57:17.034Z,97983.50
2023-01-18T08:58:19.756Z,97985.78
2023-01-18T08:59:23.685Z,97980.78
2023-01-18T09:00:29.931Z,97980.78
2023-01-18T09:01:32.772Z,97991.00
2023-01-18T09:02:34.509Z,97994.56
2023-01-18T09:03:37.769Z,97997.28
2023-01-18T09:04:42.257Z,97992.28
2023-01-18T09:05:45.835Z,97997.91
2023-01-18T09:06:53.300Z,98001.69
2023-01-18T09:07:55.960Z,98004.78
2023-01-18T09:08:59.485Z,98017.31
2023-01-18T09:10:02.225Z,98011.69
2023-01-18T09:11:05.044Z,98018.56
2023-01-18T09:12:07.775Z,98016.69
2023-01-18T09:13:11.053Z,98019.56
2023-01-18T09:14:15.399Z,98017.69
2023-01-18T09:15:18.377Z,98021.41
2023-01-18T09:16:23.032Z,98019.38
2023-01-18T09:17:26.916Z,98018.34
2023-01-18T09:18:30.151Z,98020.00
2023-01-18T09:19:33.008Z,98019.16
2023-01-18T09:20:36.797Z,98025.41
2023-01-18T09:21:40.183Z,98029.13
2023-01-18T09:22:42.865Z,98034.84
2023-01-18T09:23:45.692Z,98032.66
2023-01-18T09:24:48.349Z,98032.47
2023-01-18T09:26:02.468Z,98032.94
2023-01-18T09:27:05.654Z,98029.59
2023-01-18T09:28:07.432Z,98038.56
2023-01-18T09:29:10.116Z,98043.28
2023-01-18T09:30:12.681Z,98047.91
2023-01-18T09:31:15.613Z,98041.66
2023-01-18T09:32:19.899Z,98046.22
2023-01-18T09:33:22.766Z,98052.88
2023-01-18T09:34:24.517Z,98048.97
2023-01-18T09:35:27.356Z,98056.88
2023-01-18T09:36:30.822Z,98056.06
2023-01-18T09:37:32.760Z,98061.88
2023-01-18T09:38:36.802Z,98058.94
2023-01-18T09:39:51.014Z,98058.34
2023-01-18T09:40:54.975Z,98070.00
2023-01-18T09:42:00.217Z,98061.47
2023-01-18T09:43:02.012Z,98078.75
2023-01-18T09:44:19.154Z,98066.69
2023-01-18T09:45:30.336Z,98079.81
2023-01-18T09:46:35.478Z,98070.06
2023-01-18T09:47:44.733Z,98076.53
2023-01-18T09:48:52.233Z,98081.13
2023-01-18T09:49:56.725Z,98077.59
2023-01-18T09:51:02.201Z,98078.03
2023-01-18T09:52:23.721Z,98085.91
2023-01-18T09:53:34.177Z,98085.53
2023-01-18T09:54:42.996Z,98089.69
2023-01-18T09:55:51.043Z,98094.88
2023-01-18T09:57:01.452Z,98088.25
2023-01-18T09:58:13.377Z,98086.19
2023-01-18T09:59:22.065Z,98100.53
2023-01-18T10:00:26.913Z,98092.19
2023-01-18T10:01:33.181Z,98096.78
2023-01-18T10:02:39.347Z,98100.53
2023-01-18T10:03:49.386Z,98108.84
2023-01-18T10:04:55.159Z,98102.59
2023-01-18T10:06:09.408Z,98106.56
2023-01-18T10:07:16.050Z,98108.03
2023-01-18T10:08:23.724Z,98115.13
2023-01-18T10:09:28.426Z,98112.22
2023-01-18T10:10:35.972Z,98112.63
2023-01-18T10:11:44.922Z,98114.31
2023-01-18T10:12:52.866Z,98112.25
2023-01-18T10:13:59.496Z,98107.25
2023-01-18T10:15:06.056Z,98114.94
2023-01-18T10:16:14.612Z,98109.94
2023-01-18T10:17:22.769Z,98110.16
2023-01-18T10:18:25.962Z,98116.41
2023-01-18T10:19:30.834Z,98111.63
2023-01-18T10:20:40.323Z,98113.09
2023-01-18T10:21:48.811Z,98122.28
2023-01-18T10:22:55.289Z,98117.28
2023-01-18T10:24:10.282Z,98116.69
2023-01-18T10:25:17.122Z,98117.47
2023-01-18T10:26:21.804Z,98120.41
2023-01-18T10:27:48.536Z,98122.31
2023-01-18T10:28:56.339Z,98125.88
2023-01-18T10:30:15.830Z,98127.31
2023-01-18T10:31:27.479Z,98129.19
2023-01-18T10:32:30.604Z,98126.06
2023-01-18T10:33:37.505Z,98130.00
2023-01-18T10:34:43.022Z,98132.31
2023-01-18T10:35:48.087Z,98139.84
2023-01-18T10:36:52.892Z,98131.47
2023-01-18T10:37:58.908Z,98137.75
2023-01-18T10:39:04.715Z,98139.19
2023-01-18T10:40:10.335Z,98142.09
2023-01-18T10:41:19.985Z,98139.59
2023-01-18T10:42:24.759Z,98132.72
2023-01-18T10:43:27.506Z,98132.09
2023-01-18T10:44:31.599Z,98136.66
2023-01-18T10:45:35.842Z,98137.69
2023-01-18T10:46:38.916Z,98139.97
2023-01-18T10:47:40.580Z,98138.94
2023-01-18T10:48:49.705Z,98139.13
2023-01-18T10:49:58.887Z,98134.13
2023-01-18T10:51:02.862Z,98139.97
2023-01-18T10:52:26.271Z,98141.81
2023-01-18T10:53:32.484Z,98142.00
2023-01-18T10:54:35.183Z,98143.88
2023-01-18T10:55:37.885Z,98144.75
2023-01-18T10:56:40.738Z,98147.22
2023-01-18T10:57:45.766Z,98146.38
2023-01-18T10:58:54.370Z,98147.16
2023-01-18T10:59:57.585Z,98151.09
2023-01-18T11:01:00.955Z,98156.72
2023-01-18T11:02:05.108Z,98152.97
2023-01-18T11:03:13.174Z,98149.66
2023-01-18T11:04:21.639Z,98148.25
2023-01-18T11:05:29.307Z,98152.41
2023-01-18T11:06:32.044Z,98153.59
2023-01-18T11:07:34.046Z,98151.53
2023-01-18T11:08:36.897Z,98150.44
2023-01-18T11:09:44.645Z,98158.00
2023-01-18T11:10:46.580Z,98147.97
2023-01-18T11:12:07.018Z,98145.31
2023-01-18T11:13:25.446Z,98152.41
2023-01-18T11:14:30.508Z,98152.38
2023-01-18T11:15:32.455Z,98155.31
2023-01-18T11:16:35.998Z,98158.66
2023-01-18T11:17:37.784Z,98155.94
2023-01-18T11:18:56.415Z,98161.56
2023-01-18T11:20:08.286Z,98155.69
2023-01-18T11:21:11.330Z,98159.69
2023-01-18T11:22:14.300Z,98162.81
2023-01-18T11:23:22.183Z,98158.84
2023-01-18T11:24:28.245Z,98167.56
2023-01-18T11:25:40.204Z,98167.78
2023-01-18T11:26:52.641Z,98163.38
2023-01-18T11:28:01.510Z,98160.06
2023-01-18T11:29:06.417Z,98154.63
2023-01-18T11:30:21.106Z,98159.59
2023-01-18T11:31:25.683Z,98164.84
2023-01-18T11:32:30.580Z,98167.56
2023-01-18T11:33:32.391Z,98161.03
2023-01-18T11:34:36.830Z,98167.47
2023-01-18T11:35:41.294Z,98171.22
2023-01-18T11:36:45.711Z,98162.81
2023-01-18T11:37:47.612Z,98168.03
2023-01-18T11:38:50.430Z,98171.97
2023-01-18T11:39:52.193Z,98170.31
2023-01-18T11:41:04.519Z,98169.19
2023-01-18T11:42:24.089Z,98175.06
2023-01-18T11:43:27.900Z,98177.34
2023-01-18T11:44:34.292Z,98182.16
2023-01-18T11:45:40.447Z,98164.34
2023-01-18T11:46:43.912Z,98171.13
2023-01-18T11:47:55.313Z,98170.47
2023-01-18T11:49:02.751Z,98167.66
2023-01-18T11:50:21.323Z,98164.75
2023-01-18T11:51:32.946Z,98166.63
2023-01-18T11:52:42.337Z,98167.91
2023-01-18T11:53:49.775Z,98166.09
2023-01-18T11:54:58.786Z,98177.81
2023-01-18T11:56:06.478Z,98167.91
2023-01-18T11:57:12.790Z,98174.78
2023-01-18T11:58:26.867Z,98176.06
2023-01-18T11:59:30.958Z,98177.84
2023-01-18T12:00:42.957Z,98172.28
2023-01-18T12:02:06.831Z,98177.84
2023-01-18T12:03:26.355Z,98178.31
2023-01-18T12:04:37.341Z,98189.97
2023-01-18T12:05:45.955Z,98178.03
2023-01-18T12:06:55.546Z,98183.50
2023-01-18T12:08:10.730Z,98188.53
2023-01-18T12:09:22.499Z,98187.25
2023-01-18T12:10:28.959Z,98190.41
2023-01-18T12:11:45.575Z,98196.06
2023-01-18T12:13:03.605Z,98198.38
2023-01-18T12:14:16.071Z,98190.25
2023-01-18T12:15:41.877Z,98207.78
2023-01-18T12:16:54.787Z,98200.56
2023-01-18T12:18:14.187Z,98199.69
2023-01-18T12:19:27.343Z,98207.41
2023-01-18T12:20:34.311Z,98205.38
2023-01-18T12:21:43.658Z,98215.38
2023-01-18T12:23:11.872Z,98206.38
2023-01-18T12:24:28.446Z,98205.91
2023-01-18T12:26:12.504Z,98211.03
2023-01-18T12:27:22.290Z,98215.38
2023-01-18T12:28:33.120Z,98223.75
2023-01-18T12:30:00.349Z,98213.88
2023-01-18T12:31:13.323Z,98219.13
2023-01-18T12:32:27.868Z,98217.84
2023-01-18T12:33:43.740Z,98221.25
2023-01-18T12:34:58.351Z,98223.78
2023-01-18T12:36:13.357Z,98227.56
2023-01-18T12:37:27.556Z,98226.13
2023-01-18T12:38:33.191Z,98229.88
2023-01-18T12:39:59.492Z,98233.84
2023-01-18T12:41:17.588Z,98232.56
2023-01-18T12:42:26.032Z,98233.84
2023-01-18T12:43:37.866Z,98247.69
2023-01-18T12:44:51.052Z,98241.34
2023-01-18T12:45:58.709Z,98242.25
2023-01-18T12:47:11.712Z,98240.97
2023-01-18T12:48:18.731Z,98240.59
2023-01-18T12:49:23.050Z,98247.50
2023-01-18T12:50:29.099Z,98241.03
2023-01-18T12:51:33.887Z,98240.19